createdAt,value
2023-05-10T00:02:09.022Z,60.82
2023-05-10T00:04:37.937Z,60.86
2023-05-10T00:07:07.368Z,59.86
2023-05-10T00:09:39.217Z,60.41
2023-05-10T00:12:08.419Z,60.51
2023-05-10T00:14:38.350Z,60.70
2023-05-10T00:17:10.169Z,60.89
2023-05-10T00:19:39.448Z,60.72
2023-05-10T00:22:08.793Z,60.80
2023-05-10T00:24:37.723Z,60.62
2023-05-10T00:27:06.656Z,60.44
2023-05-10T00:29:37.901Z,60.73
2023-05-10T00:32:07.103Z,60.57
2023-05-10T00:34:36.194Z,60.48
2023-05-10T00:37:05.677Z,60.36
2023-05-10T00:39:38.441Z,60.35
2023-05-10T00:42:07.828Z,60.31
2023-05-10T00:44:36.823Z,60.29
2023-05-10T00:47:06.248Z,60.56
2023-05-10T00:49:36.140Z,60.16
2023-05-10T00:52:05.429Z,59.84
2023-05-10T00:54:36.270Z,60.27
2023-05-10T00:57:05.576Z,60.64
2023-05-10T00:59:37.289Z,60.98
2023-05-10T01:02:06.762Z,60.80
2023-05-10T01:04:37.629Z,60.76
2023-05-10T01:07:09.224Z,61.18
2023-05-10T01:09:38.204Z,61.12
2023-05-10T01:12:10.604Z,61.02
2023-05-10T01:14:40.021Z,61.25
2023-05-10T01:17:11.482Z,61.51
2023-05-10T01:19:40.832Z,61.62
2023-05-10T01:22:27.687Z,61.77
2023-05-10T01:25:20.511Z,61.81
2023-05-10T01:28:36.029Z,62.12
2023-05-10T01:31:28.759Z,61.87
2023-05-10T01:34:08.915Z,62.43
2023-05-10T01:36:44.535Z,63.29
2023-05-10T01:39:22.133Z,62.76
2023-05-10T01:41:56.786Z,62.57
2023-05-10T01:44:36.433Z,62.67
2023-05-10T01:47:10.619Z,62.75
2023-05-10T01:49:44.443Z,62.53
2023-05-10T01:52:16.712Z,62.24
2023-05-10T01:54:56.927Z,62.42
2023-05-10T01:57:41.152Z,62.17
2023-05-10T02:00:14.483Z,62.66
2023-05-10T02:02:47.611Z,62.39
2023-05-10T02:05:18.771Z,62.52
2023-05-10T02:07:48.710Z,62.79
2023-05-10T02:10:21.614Z,62.99
2023-05-10T02:12:52.008Z,63.49
2023-05-10T02:15:23.835Z,63.37
2023-05-10T02:17:58.522Z,63.94
2023-05-10T02:20:28.064Z,64.19
2023-05-10T02:22:58.585Z,64.48
2023-05-10T02:25:32.467Z,64.61
2023-05-10T02:28:05.528Z,64.13
2023-05-10T02:30:36.053Z,64.63
2023-05-10T02:33:06.880Z,64.50
2023-05-10T02:35:39.521Z,64.92
2023-05-10T02:38:10.165Z,64.08
2023-05-10T02:40:41.766Z,64.97
2023-05-10T02:43:15.662Z,65.27
2023-05-10T02:45:47.666Z,65.40
2023-05-10T02:48:17.968Z,65.33
2023-05-10T02:50:51.755Z,65.42
2023-05-10T02:53:30.246Z,65.39
2023-05-10T02:56:10.348Z,66.08
2023-05-10T02:58:39.517Z,65.76
2023-05-10T03:01:09.543Z,65.81
2023-05-10T03:03:39.233Z,66.50
2023-05-10T03:06:11.817Z,65.86
2023-05-10T03:08:40.937Z,67.20
2023-05-10T03:11:40.834Z,67.56
2023-05-10T03:14:30.582Z,66.51
2023-05-10T03:17:08.604Z,66.87
2023-05-10T03:19:44.850Z,66.54
2023-05-10T03:22:21.850Z,67.25
2023-05-10T03:24:52.948Z,66.93
2023-05-10T03:27:24.062Z,66.93
2023-05-10T03:29:58.063Z,67.62
2023-05-10T03:32:33.041Z,67.52
2023-05-10T03:35:09.319Z,67.58
2023-05-10T03:37:38.860Z,67.05
2023-05-10T03:40:12.905Z,66.93
2023-05-10T03:42:43.613Z,67.04
2023-05-10T03:45:12.768Z,66.94
2023-05-10T03:47:43.857Z,67.26
2023-05-10T03:50:13.009Z,67.15
2023-05-10T03:52:42.025Z,66.96
2023-05-10T03:55:11.102Z,66.73
2023-05-10T03:57:40.445Z,66.54
2023-05-10T04:00:17.439Z,65.86
2023-05-10T04:02:49.536Z,65.94
2023-05-10T04:05:22.023Z,65.18
2023-05-10T04:07:54.014Z,65.54
2023-05-10T04:10:24.512Z,64.84
2023-05-10T04:12:53.547Z,63.18
2023-05-10T04:15:22.803Z,61.09
2023-05-10T04:17:52.130Z,58.32
2023-05-10T04:20:21.351Z,54.05
2023-05-10T04:22:50.144Z,50.34
2023-05-10T04:25:19.087Z,46.97
2023-05-10T04:27:53.481Z,42.92
2023-05-10T04:30:22.644Z,41.58
2023-05-10T04:32:51.729Z,38.17
2023-05-10T04:35:27.585Z,35.99
2023-05-10T04:37:57.032Z,35.88
2023-05-10T04:40:26.837Z,36.82
2023-05-10T04:42:58.651Z,36.42
2023-05-10T04:45:28.036Z,38.15
2023-05-10T04:47:56.964Z,37.93
2023-05-10T04:50:26.021Z,35.43
2023-05-10T04:52:54.962Z,35.16
2023-05-10T04:55:23.876Z,32.14
2023-05-10T04:57:52.639Z,33.94
2023-05-10T05:00:22.539Z,30.89
2023-05-10T05:02:52.144Z,30.47
2023-05-10T05:05:21.324Z,29.76
2023-05-10T05:07:51.783Z,28.56
2023-05-10T05:10:20.836Z,28.08
2023-05-10T05:12:49.985Z,26.28
2023-05-10T05:15:19.104Z,26.68
2023-05-10T05:17:48.624Z,24.86
2023-05-10T05:20:20.666Z,25.22
2023-05-10T05:22:49.970Z,24.00
2023-05-10T05:25:19.424Z,23.87
2023-05-10T05:27:48.256Z,22.71
2023-05-10T05:30:18.889Z,22.61
2023-05-10T05:32:47.886Z,23.76
2023-05-10T05:35:18.231Z,24.50
2023-05-10T05:37:47.204Z,26.64
2023-05-10T05:40:16.351Z,26.75
2023-05-10T05:42:54.387Z,26.08
2023-05-10T05:45:23.439Z,26.06
2023-05-10T05:47:52.619Z,25.57
2023-05-10T05:50:21.459Z,24.52
2023-05-10T05:52:52.946Z,24.45
2023-05-10T05:55:26.419Z,24.42
2023-05-10T05:57:55.355Z,25.75
2023-05-10T06:00:24.912Z,26.14
2023-05-10T06:02:53.998Z,26.84
2023-05-10T06:05:22.846Z,27.84
2023-05-10T06:07:52.685Z,28.87
2023-05-10T06:10:25.924Z,29.55
2023-05-10T06:12:54.926Z,30.46
2023-05-10T06:15:24.386Z,31.30
2023-05-10T06:17:53.612Z,31.30
2023-05-10T06:20:32.369Z,30.84
2023-05-10T06:23:01.490Z,31.66
2023-05-10T06:25:30.502Z,31.92
2023-05-10T06:28:02.580Z,33.49
2023-05-10T06:30:32.493Z,34.38
2023-05-10T06:33:02.601Z,36.49
2023-05-10T06:35:32.368Z,35.68
2023-05-10T06:38:01.503Z,35.95
2023-05-10T06:40:30.861Z,36.52
2023-05-10T06:43:00.062Z,36.89
2023-05-10T06:45:29.221Z,38.35
2023-05-10T06:48:01.964Z,37.56
2023-05-10T06:50:31.400Z,37.64
2023-05-10T06:53:03.319Z,37.83
2023-05-10T06:55:32.692Z,37.94
2023-05-10T06:58:02.478Z,37.97
2023-05-10T07:00:31.414Z,38.10
2023-05-10T07:03:00.605Z,38.19
2023-05-10T07:05:29.882Z,38.32
2023-05-10T07:07:59.102Z,37.89
2023-05-10T07:10:28.000Z,36.94
2023-05-10T07:12:57.721Z,37.38
2023-05-10T07:15:26.963Z,36.08
2023-05-10T07:17:59.521Z,36.29
2023-05-10T07:20:28.840Z,35.47
2023-05-10T07:22:57.628Z,34.69
2023-05-10T07:25:28.993Z,34.17
2023-05-10T07:27:57.883Z,33.29
2023-05-10T07:30:26.854Z,33.06
2023-05-10T07:32:55.970Z,33.00
2023-05-10T07:35:24.999Z,33.43
2023-05-10T07:37:54.043Z,32.83
2023-05-10T07:40:23.366Z,33.12
2023-05-10T07:42:52.326Z,32.26
2023-05-10T07:45:21.245Z,32.35
2023-05-10T07:47:50.198Z,31.75
2023-05-10T07:50:19.848Z,32.16
2023-05-10T07:52:48.769Z,32.20
2023-05-10T07:55:19.123Z,30.69
2023-05-10T07:57:48.118Z,30.35
2023-05-10T08:00:20.337Z,30.85
2023-05-10T08:02:49.490Z,30.91
2023-05-10T08:05:18.727Z,30.71
2023-05-10T08:07:47.926Z,29.92
2023-05-10T08:10:17.307Z,29.82
2023-05-10T08:12:46.088Z,29.75
2023-05-10T08:15:15.274Z,29.29
2023-05-10T08:17:44.554Z,29.98
2023-05-10T08:20:17.175Z,30.79
2023-05-10T08:22:47.038Z,30.91
2023-05-10T08:25:16.555Z,30.46
2023-05-10T08:27:47.082Z,30.47
2023-05-10T08:30:16.032Z,30.64
2023-05-10T08:32:45.028Z,30.79
2023-05-10T08:35:14.084Z,30.64
2023-05-10T08:37:43.402Z,30.88
2023-05-10T08:40:14.658Z,31.34
2023-05-10T08:42:52.860Z,31.08
2023-05-10T08:45:23.925Z,31.40
2023-05-10T08:47:54.232Z,30.85
2023-05-10T08:50:24.036Z,30.57
2023-05-10T08:52:56.677Z,29.73
2023-05-10T08:55:26.024Z,29.99
2023-05-10T08:57:55.626Z,30.54
2023-05-10T09:00:25.349Z,29.44
2023-05-10T09:02:54.510Z,29.67
2023-05-10T09:05:23.524Z,28.93
2023-05-10T09:07:52.670Z,28.72
2023-05-10T09:10:22.741Z,28.20
2023-05-10T09:12:52.157Z,28.31
2023-05-10T09:15:21.332Z,28.30
2023-05-10T09:17:51.812Z,27.34
2023-05-10T09:20:20.928Z,27.15
2023-05-10T09:22:50.198Z,27.25
2023-05-10T09:25:19.402Z,28.18
2023-05-10T09:27:49.628Z,28.42
2023-05-10T09:30:26.932Z,28.22
2023-05-10T09:32:57.390Z,28.02
2023-05-10T09:35:29.673Z,28.46
2023-05-10T09:38:00.189Z,28.11
2023-05-10T09:40:30.779Z,28.01
2023-05-10T09:43:01.552Z,27.51
2023-05-10T09:45:32.955Z,27.53
2023-05-10T09:48:04.574Z,27.01
2023-05-10T09:50:34.514Z,26.69
2023-05-10T09:53:04.160Z,27.67
2023-05-10T09:55:42.182Z,27.86
2023-05-10T09:58:12.016Z,26.36
2023-05-10T10:00:42.089Z,25.93
2023-05-10T10:03:16.779Z,26.15
2023-05-10T10:05:47.167Z,25.76
2023-05-10T10:08:17.164Z,26.43
2023-05-10T10:10:47.226Z,26.02
2023-05-10T10:13:17.670Z,24.79
2023-05-10T10:15:48.780Z,25.36
2023-05-10T10:18:18.783Z,25.39
2023-05-10T10:20:48.067Z,26.38
2023-05-10T10:23:17.713Z,25.54
2023-05-10T10:25:49.421Z,25.32
2023-05-10T10:28:32.047Z,25.15
2023-05-10T10:31:14.835Z,26.10
2023-05-10T10:33:57.922Z,25.63
2023-05-10T10:36:27.977Z,25.01
2023-05-10T10:39:01.645Z,25.89
2023-05-10T10:41:33.405Z,25.84
2023-05-10T10:44:39.371Z,25.97
2023-05-10T10:47:09.857Z,25.87
2023-05-10T10:49:49.991Z,26.08
2023-05-10T10:52:28.611Z,26.54
2023-05-10T10:55:02.405Z,26.45
2023-05-10T10:57:38.349Z,26.41
2023-05-10T11:00:35.304Z,25.69
2023-05-10T11:03:07.604Z,26.62
2023-05-10T11:05:44.357Z,25.29
2023-05-10T11:08:26.680Z,26.17
2023-05-10T11:11:10.431Z,26.21
2023-05-10T11:13:43.978Z,26.44
2023-05-10T11:16:16.218Z,27.41
2023-05-10T11:18:57.621Z,26.80
2023-05-10T11:21:27.098Z,27.41
2023-05-10T11:23:57.833Z,27.53
2023-05-10T11:26:32.719Z,27.16
2023-05-10T11:29:05.494Z,26.99
2023-05-10T11:31:42.954Z,26.56
2023-05-10T11:34:13.159Z,26.37
2023-05-10T11:36:41.918Z,26.85
2023-05-10T11:39:11.935Z,27.75
2023-05-10T11:41:42.955Z,26.90
2023-05-10T11:44:12.482Z,26.73
2023-05-10T11:46:41.291Z,26.50
2023-05-10T11:49:11.067Z,27.14
2023-05-10T11:51:40.043Z,27.39
2023-05-10T11:54:11.741Z,26.85
2023-05-10T11:56:41.335Z,26.98
2023-05-10T11:59:10.291Z,27.56
2023-05-10T12:01:39.428Z,27.05
2023-05-10T12:04:09.054Z,26.78
2023-05-10T12:06:41.914Z,27.34
2023-05-10T12:09:10.820Z,27.13
2023-05-10T12:11:43.503Z,26.52
2023-05-10T12:14:12.419Z,27.50
2023-05-10T12:16:42.211Z,26.43
2023-05-10T12:19:11.630Z,26.65
2023-05-10T12:21:41.912Z,27.56
2023-05-10T12:24:11.007Z,27.03
2023-05-10T12:29:31.153Z,27.73
2023-05-10T12:32:00.980Z,27.30
2023-05-10T12:34:33.281Z,27.96
2023-05-10T12:37:05.832Z,27.88
2023-05-10T12:39:46.486Z,27.78
2023-05-10T12:42:15.296Z,27.29
2023-05-10T12:44:44.384Z,27.96
2023-05-10T12:47:13.453Z,27.70
2023-05-10T12:49:42.509Z,27.96
2023-05-10T12:52:11.287Z,29.13
2023-05-10T12:54:40.031Z,28.34
2023-05-10T12:57:08.902Z,27.29
2023-05-10T12:59:38.474Z,27.49
2023-05-10T13:02:07.976Z,27.65
2023-05-10T13:04:40.090Z,27.65
2023-05-10T13:07:09.477Z,27.77
2023-05-10T13:09:39.018Z,28.01
2023-05-10T13:12:09.910Z,28.12
2023-05-10T13:14:41.216Z,28.09
2023-05-10T13:17:10.361Z,28.75
2023-05-10T13:19:39.421Z,29.62
2023-05-10T13:22:09.681Z,28.31
2023-05-10T13:24:40.561Z,28.22
2023-05-10T13:27:09.819Z,28.53
2023-05-10T13:29:41.748Z,28.47
2023-05-10T13:32:12.214Z,28.49
2023-05-10T13:34:41.326Z,29.14
2023-05-10T13:37:10.349Z,28.26
2023-05-10T13:39:40.241Z,28.14
2023-05-10T13:42:09.308Z,28.61
2023-05-10T13:44:39.242Z,28.46
2023-05-10T13:47:08.944Z,28.50
2023-05-10T13:49:38.329Z,28.93
2023-05-10T13:52:07.700Z,28.56
2023-05-10T13:54:38.536Z,28.79
2023-05-10T13:57:07.693Z,28.72
2023-05-10T13:59:39.209Z,28.03
2023-05-10T14:02:09.020Z,28.13
2023-05-10T14:04:38.122Z,28.17
2023-05-10T14:07:07.473Z,27.98
2023-05-10T14:09:38.115Z,28.78
2023-05-10T14:12:07.647Z,29.09
2023-05-10T14:14:37.876Z,28.69
2023-05-10T14:17:10.738Z,29.59
2023-05-10T14:19:41.096Z,29.35
2023-05-10T14:22:10.307Z,29.05
2023-05-10T14:24:39.827Z,29.28
2023-05-10T14:27:09.137Z,29.49
2023-05-10T14:29:38.289Z,29.22
2023-05-10T14:32:08.986Z,29.50
2023-05-10T14:34:38.187Z,29.02
2023-05-10T14:37:11.588Z,28.91
2023-05-10T14:39:40.828Z,29.56
2023-05-10T14:42:10.395Z,29.38
2023-05-10T14:44:40.014Z,29.70
2023-05-10T14:47:11.205Z,29.24
2023-05-10T14:49:41.595Z,29.29
2023-05-10T14:52:10.594Z,29.70
2023-05-10T14:54:39.722Z,29.76
2023-05-10T14:57:08.718Z,29.70
2023-05-10T14:59:38.781Z,29.85
2023-05-10T15:02:10.225Z,30.32
2023-05-10T15:04:43.449Z,30.49
2023-05-10T15:07:15.336Z,30.76
2023-05-10T15:09:44.395Z,30.45
2023-05-10T15:12:13.826Z,30.05
2023-05-10T15:14:42.799Z,30.17
2023-05-10T15:17:12.153Z,30.25
2023-05-10T15:19:41.441Z,30.61
2023-05-10T15:22:12.822Z,30.72
2023-05-10T15:24:42.409Z,30.43
2023-05-10T15:27:11.456Z,31.57
2023-05-10T15:29:43.504Z,30.97
2023-05-10T15:32:12.625Z,30.91
2023-05-10T15:34:41.855Z,31.26
2023-05-10T15:37:11.061Z,30.75
2023-05-10T15:39:40.013Z,31.10
2023-05-10T15:42:09.085Z,31.51
2023-05-10T15:44:39.086Z,31.16
2023-05-10T15:47:08.194Z,31.04
2023-05-10T15:49:41.226Z,31.47
2023-05-10T15:52:11.957Z,30.95
2023-05-10T15:54:41.385Z,30.94
2023-05-10T15:57:10.472Z,30.95
2023-05-10T15:59:39.715Z,31.22
2023-05-10T16:02:12.006Z,31.10
2023-05-10T16:04:41.302Z,31.47
2023-05-10T16:07:10.428Z,31.05
2023-05-10T16:09:41.215Z,30.99
2023-05-10T16:12:10.627Z,30.68
2023-05-10T16:14:47.105Z,30.73
2023-05-10T16:17:16.968Z,30.77
2023-05-10T16:19:47.200Z,30.62
2023-05-10T16:22:16.293Z,30.89
2023-05-10T16:24:45.629Z,30.93
2023-05-10T16:27:14.883Z,30.97
2023-05-10T16:29:43.942Z,31.04
2023-05-10T16:32:13.027Z,31.09
2023-05-10T16:34:41.981Z,30.50
2023-05-10T16:37:11.562Z,30.58
2023-05-10T16:39:40.783Z,30.03
2023-05-10T16:42:15.794Z,30.37
2023-05-10T16:44:45.641Z,30.19
2023-05-10T16:47:15.280Z,30.47
2023-05-10T16:49:44.455Z,30.50
2023-05-10T16:52:13.701Z,30.34
2023-05-10T16:54:42.877Z,30.39
2023-05-10T16:57:11.968Z,30.38
2023-05-10T16:59:41.139Z,30.68
2023-05-10T17:02:10.594Z,30.62
2023-05-10T17:04:39.947Z,30.59
2023-05-10T17:07:11.627Z,30.72
2023-05-10T17:09:42.747Z,30.48
2023-05-10T17:12:12.307Z,30.71
2023-05-10T17:14:41.549Z,31.15
2023-05-10T17:17:11.286Z,31.82
2023-05-10T17:19:44.321Z,31.01
2023-05-10T17:22:14.157Z,31.66
2023-05-10T17:24:43.336Z,31.53
2023-05-10T17:27:15.188Z,31.68
2023-05-10T17:29:45.803Z,31.78
2023-05-10T17:32:15.433Z,32.23
2023-05-10T17:34:44.615Z,32.19
2023-05-10T17:37:18.792Z,32.03
2023-05-10T17:39:47.895Z,32.67
2023-05-10T17:42:18.857Z,32.69
2023-05-10T17:44:48.153Z,32.87
2023-05-10T17:47:17.668Z,32.44
2023-05-10T17:49:47.144Z,33.41
2023-05-10T17:52:16.459Z,33.81
2023-05-10T17:54:45.594Z,33.67
2023-05-10T17:57:22.012Z,33.60
2023-05-10T17:59:52.363Z,33.85
2023-05-10T18:02:29.849Z,34.69
2023-05-10T18:05:06.194Z,34.54
2023-05-10T18:07:38.309Z,34.85
2023-05-10T18:10:09.278Z,36.06
2023-05-10T18:12:38.488Z,35.64
2023-05-10T18:15:14.156Z,35.66
2023-05-10T18:17:43.588Z,35.81
2023-05-10T18:20:13.588Z,36.20
2023-05-10T18:22:42.909Z,36.21
2023-05-10T18:25:13.804Z,36.87
2023-05-10T18:27:45.805Z,37.95
2023-05-10T18:30:18.690Z,37.23
2023-05-10T18:32:47.993Z,37.34
2023-05-10T18:35:17.045Z,37.81
2023-05-10T18:37:46.706Z,38.23
2023-05-10T18:40:17.285Z,38.01
2023-05-10T18:42:46.560Z,38.64
2023-05-10T18:45:16.805Z,39.43
2023-05-10T18:47:46.886Z,40.13
2023-05-10T18:50:17.046Z,39.64
2023-05-10T18:52:50.967Z,40.42
2023-05-10T18:55:20.670Z,40.20
2023-05-10T18:57:51.996Z,39.90
2023-05-10T19:00:22.789Z,39.43
2023-05-10T19:02:53.304Z,40.26
2023-05-10T19:05:29.137Z,40.15
2023-05-10T19:08:06.320Z,40.11
2023-05-10T19:10:38.013Z,40.31
2023-05-10T19:13:07.373Z,40.16
2023-05-10T19:15:37.959Z,40.63
2023-05-10T19:18:09.731Z,40.76
2023-05-10T19:20:40.845Z,41.36
2023-05-10T19:23:11.661Z,40.69
2023-05-10T19:25:47.007Z,41.27
2023-05-10T19:28:16.795Z,40.46
2023-05-10T19:30:46.819Z,40.93
2023-05-10T19:33:15.918Z,40.62
2023-05-10T19:35:45.387Z,40.90
2023-05-10T19:38:14.546Z,41.59
2023-05-10T19:40:43.831Z,41.09
2023-05-10T19:43:12.799Z,41.17
2023-05-10T19:45:41.500Z,41.17
2023-05-10T19:48:10.313Z,41.39
2023-05-10T19:50:39.264Z,41.77
2023-05-10T19:53:08.154Z,41.85
2023-05-10T19:55:37.680Z,41.33
2023-05-10T19:58:06.865Z,41.33
2023-05-10T20:00:37.367Z,41.45
2023-05-10T20:03:09.050Z,41.56
2023-05-10T20:05:38.475Z,41.84
2023-05-10T20:08:07.452Z,41.91
2023-05-10T20:10:38.512Z,41.96
2023-05-10T20:13:07.770Z,41.21
2023-05-10T20:15:37.086Z,42.10
2023-05-10T20:18:06.528Z,41.82
2023-05-10T20:20:37.149Z,41.93
2023-05-10T20:23:05.994Z,41.67
2023-05-10T20:25:38.411Z,42.60
2023-05-10T20:28:09.658Z,41.93
2023-05-10T20:30:38.932Z,42.46
2023-05-10T20:33:08.764Z,42.49
2023-05-10T20:35:37.673Z,42.06
2023-05-10T20:38:06.661Z,42.18
2023-05-10T20:40:36.809Z,42.86
2023-05-10T20:43:05.746Z,42.83
2023-05-10T20:45:37.368Z,43.13
2023-05-10T20:48:07.929Z,43.33
2023-05-10T20:50:37.736Z,43.23
2023-05-10T20:53:06.799Z,43.48
2023-05-10T20:55:36.565Z,43.84
2023-05-10T20:58:05.708Z,44.16
2023-05-10T21:00:37.134Z,43.90
2023-05-10T21:03:06.604Z,43.64
2023-05-10T21:05:37.991Z,44.60
2023-05-10T21:08:06.913Z,44.26
2023-05-10T21:10:36.516Z,44.27
2023-05-10T21:13:05.453Z,44.29
2023-05-10T21:15:35.202Z,44.42
2023-05-10T21:18:05.006Z,44.53
2023-05-10T21:20:33.994Z,45.13
2023-05-10T21:23:06.607Z,45.74
2023-05-10T21:25:37.122Z,46.44
2023-05-10T21:28:06.173Z,46.00
2023-05-10T21:30:37.651Z,45.92
2023-05-10T21:33:07.055Z,46.01
2023-05-10T21:35:42.086Z,46.05
2023-05-10T21:38:11.477Z,45.71
2023-05-10T21:40:40.583Z,46.73
2023-05-10T21:43:10.705Z,46.49
2023-05-10T21:45:40.250Z,46.59
2023-05-10T21:48:09.606Z,46.70
2023-05-10T21:50:38.669Z,46.76
2023-05-10T21:53:07.477Z,46.99
2023-05-10T21:55:38.473Z,46.96
2023-05-10T21:58:07.829Z,47.00
2023-05-10T22:00:38.007Z,47.63
2023-05-10T22:03:07.827Z,47.05
2023-05-10T22:05:38.599Z,47.67
2023-05-10T22:08:09.722Z,47.96
2023-05-10T22:10:38.671Z,47.44
2023-05-10T22:13:08.074Z,47.85
2023-05-10T22:15:39.994Z,48.03
2023-05-10T22:18:09.120Z,47.90
2023-05-10T22:20:39.152Z,47.85
2023-05-10T22:23:08.438Z,48.61
2023-05-10T22:25:38.878Z,48.38
2023-05-10T22:28:08.661Z,48.66
2023-05-10T22:30:41.332Z,48.93
